createdAt,value
2022-12-31T05:55:28.341Z,11.45
2022-12-31T05:57:54.964Z,11.46
2022-12-31T06:00:21.728Z,11.45
2022-12-31T06:02:48.224Z,11.45
2022-12-31T06:05:14.749Z,11.47
2022-12-31T06:07:41.289Z,11.48
2022-12-31T06:10:08.258Z,11.54
2022-12-31T06:12:35.554Z,11.46
2022-12-31T06:15:02.659Z,11.51
2022-12-31T06:17:31.911Z,11.54
2022-12-31T06:19:59.728Z,11.49
2022-12-31T06:22:26.367Z,11.48
2022-12-31T06:24:52.906Z,11.55
2022-12-31T06:27:19.372Z,11.44
2022-12-31T06:29:46.055Z,11.52
2022-12-31T06:32:12.597Z,11.54
2022-12-31T06:34:39.125Z,11.57
2022-12-31T06:37:05.595Z,11.49
2022-12-31T06:39:32.110Z,11.48
2022-12-31T06:41:58.660Z,11.55
2022-12-31T06:44:25.190Z,11.59
2022-12-31T06:46:51.728Z,11.47
2022-12-31T06:49:18.345Z,11.54
2022-12-31T06:51:46.043Z,11.46
2022-12-31T06:54:13.293Z,11.59
2022-12-31T06:56:40.767Z,11.60
2022-12-31T06:59:17.776Z,11.63
2022-12-31T07:01:51.142Z,11.64
2022-12-31T07:04:32.864Z,11.65
2022-12-31T07:07:15.904Z,11.75
2022-12-31T07:10:29.737Z,11.69
2022-12-31T07:12:56.229Z,11.63
2022-12-31T07:15:40.521Z,11.78
2022-12-31T07:18:17.906Z,12.00
2022-12-31T07:20:44.717Z,12.07
2022-12-31T07:23:11.492Z,12.08
2022-12-31T07:25:44.105Z,12.26
2022-12-31T07:28:28.105Z,12.28
2022-12-31T07:30:54.598Z,12.23
2022-12-31T07:33:47.506Z,12.33
2022-12-31T07:36:45.492Z,12.36
2022-12-31T07:39:25.693Z,12.27
2022-12-31T07:42:06.125Z,12.40
2022-12-31T07:44:32.610Z,12.59
2022-12-31T07:47:01.616Z,12.55
2022-12-31T07:49:29.984Z,12.63
2022-12-31T07:51:57.000Z,12.65
2022-12-31T07:54:23.652Z,12.66
2022-12-31T07:56:50.684Z,12.64
2022-12-31T07:59:41.240Z,12.74
2022-12-31T08:02:17.021Z,12.85
2022-12-31T08:05:00.260Z,12.96
2022-12-31T08:07:26.637Z,13.08
2022-12-31T08:09:58.583Z,13.32
2022-12-31T08:12:31.032Z,13.50
2022-12-31T08:14:57.660Z,13.15
2022-12-31T08:17:24.396Z,13.31
2022-12-31T08:19:51.230Z,13.21
2022-12-31T08:22:39.156Z,13.69
2022-12-31T08:25:18.316Z,14.05
2022-12-31T08:28:03.098Z,14.71
2022-12-31T08:31:05.528Z,15.03
2022-12-31T08:33:38.773Z,14.39
2022-12-31T08:36:23.248Z,13.98
2022-12-31T08:39:23.124Z,14.31
2022-12-31T08:41:53.097Z,14.93
2022-12-31T08:44:44.169Z,14.92
2022-12-31T08:47:38.480Z,14.44
2022-12-31T08:50:05.936Z,13.79
2022-12-31T08:52:32.754Z,13.88
2022-12-31T08:54:59.527Z,13.87
2022-12-31T08:57:46.041Z,13.68
2022-12-31T09:00:19.096Z,13.79
2022-12-31T09:03:07.812Z,13.88
2022-12-31T09:05:46.151Z,13.77
2022-12-31T09:08:15.782Z,13.82
2022-12-31T09:11:06.168Z,13.87
2022-12-31T09:13:50.309Z,13.87
2022-12-31T09:16:52.385Z,14.05
2022-12-31T09:19:19.385Z,14.07
2022-12-31T09:21:46.194Z,14.19
2022-12-31T09:24:16.546Z,14.11
2022-12-31T09:27:10.309Z,14.17
2022-12-31T09:29:42.873Z,14.04
2022-12-31T09:32:33.992Z,14.12
2022-12-31T09:35:16.498Z,14.22
2022-12-31T09:37:51.373Z,14.06
2022-12-31T09:40:50.563Z,14.22
2022-12-31T09:44:00.904Z,14.03
2022-12-31T09:46:37.267Z,14.34
2022-12-31T09:49:23.513Z,14.32
2022-12-31T09:52:28.240Z,14.66
2022-12-31T09:55:23.953Z,14.54
2022-12-31T09:58:02.274Z,14.66
2022-12-31T10:00:38.975Z,14.58
2022-12-31T10:03:29.728Z,14.83
2022-12-31T10:06:21.876Z,14.76
2022-12-31T10:09:09.899Z,14.90
2022-12-31T10:12:04.702Z,14.94
2022-12-31T10:14:47.416Z,14.94
2022-12-31T10:17:36.030Z,14.96
2022-12-31T10:20:11.603Z,15.07
2022-12-31T10:22:47.464Z,15.16
2022-12-31T10:25:38.134Z,15.27
2022-12-31T10:28:23.857Z,15.23
2022-12-31T10:31:13.927Z,15.35
2022-12-31T10:34:17.118Z,15.28
2022-12-31T10:37:06.160Z,15.26
2022-12-31T10:40:00.524Z,15.40
2022-12-31T10:42:30.398Z,15.40
2022-12-31T10:45:02.573Z,15.27
2022-12-31T10:48:06.499Z,15.43
2022-12-31T10:50:51.011Z,15.44
2022-12-31T10:53:52.546Z,15.56
2022-12-31T10:56:46.138Z,15.44
2022-12-31T10:59:32.657Z,15.59
2022-12-31T11:02:08.645Z,15.43
2022-12-31T11:04:38.297Z,15.50
2022-12-31T11:07:26.028Z,15.54
2022-12-31T11:10:10.778Z,15.40
2022-12-31T11:13:06.622Z,15.28
2022-12-31T11:15:51.615Z,15.48
2022-12-31T11:18:45.319Z,15.53
2022-12-31T11:21:30.026Z,15.59
2022-12-31T11:24:18.374Z,15.55
2022-12-31T11:27:08.954Z,15.46
2022-12-31T11:29:49.396Z,15.52
2022-12-31T11:32:44.592Z,15.59
2022-12-31T11:35:26.254Z,15.60
2022-12-31T11:38:25.830Z,15.67
2022-12-31T11:41:21.161Z,15.61
2022-12-31T11:44:02.948Z,15.65
2022-12-31T11:46:56.689Z,15.65
2022-12-31T11:49:32.282Z,15.70
2022-12-31T11:52:01.435Z,15.74
2022-12-31T11:54:56.976Z,16.06
2022-12-31T11:57:34.622Z,16.22
2022-12-31T12:00:21.777Z,16.21
2022-12-31T12:02:55.190Z,16.25
2022-12-31T12:05:26.102Z,16.30
2022-12-31T12:07:53.609Z,16.14
2022-12-31T12:10:35.981Z,16.16
2022-12-31T12:13:13.342Z,16.26
2022-12-31T12:15:45.519Z,16.63
2022-12-31T12:18:26.285Z,18.58
2022-12-31T12:20:55.689Z,19.88
2022-12-31T12:23:24.831Z,20.14
2022-12-31T12:25:51.971Z,19.85
2022-12-31T12:28:18.616Z,19.88
2022-12-31T12:30:55.054Z,20.64
2022-12-31T12:33:21.825Z,21.16
2022-12-31T12:35:48.804Z,20.70
2022-12-31T12:38:21.270Z,20.57
2022-12-31T12:40:59.687Z,20.25
2022-12-31T12:43:31.708Z,19.68
2022-12-31T12:46:05.040Z,18.31
2022-12-31T12:48:41.336Z,18.17
2022-12-31T12:51:13.669Z,17.69
2022-12-31T12:53:49.456Z,17.40
2022-12-31T12:56:41.995Z,17.35
2022-12-31T12:59:08.491Z,17.19
2022-12-31T13:02:03.130Z,17.32
2022-12-31T13:05:11.093Z,16.97
2022-12-31T13:07:56.043Z,17.09
2022-12-31T13:10:47.026Z,17.11
2022-12-31T13:13:26.073Z,17.16
2022-12-31T13:16:19.570Z,17.08
2022-12-31T13:18:58.715Z,17.06
2022-12-31T13:21:42.142Z,16.98
2022-12-31T13:24:17.478Z,17.14
2022-12-31T13:27:02.829Z,17.01
2022-12-31T13:29:33.068Z,16.95
2022-12-31T13:32:04.913Z,16.88
2022-12-31T13:34:37.180Z,16.89
2022-12-31T13:37:13.747Z,17.03
2022-12-31T13:39:43.477Z,17.03
2022-12-31T13:42:18.310Z,17.09
2022-12-31T13:45:02.613Z,16.93
2022-12-31T13:47:56.992Z,17.02
2022-12-31T13:50:29.533Z,16.89
2022-12-31T13:53:03.218Z,16.96
2022-12-31T13:55:42.108Z,16.86
2022-12-31T13:58:27.766Z,16.68
2022-12-31T14:01:03.135Z,16.74
2022-12-31T14:03:47.240Z,16.86
2022-12-31T14:06:40.582Z,16.69
2022-12-31T14:09:08.089Z,16.69
2022-12-31T14:11:58.620Z,16.74
2022-12-31T14:14:33.791Z,16.82
2022-12-31T14:17:10.265Z,16.62
2022-12-31T14:19:56.851Z,16.38
2022-12-31T14:22:47.767Z,16.28
2022-12-31T14:25:26.465Z,16.25
2022-12-31T14:27:56.244Z,16.11
2022-12-31T14:30:28.186Z,16.09
2022-12-31T14:33:01.187Z,15.97
2022-12-31T14:35:55.645Z,15.91
2022-12-31T14:38:25.101Z,15.87
2022-12-31T14:41:21.267Z,15.95
2022-12-31T14:44:21.226Z,15.74
2022-12-31T14:47:12.587Z,15.53
2022-12-31T14:49:49.704Z,15.54
2022-12-31T14:52:16.111Z,15.54
2022-12-31T14:54:42.673Z,15.37
2022-12-31T14:57:11.122Z,15.39
2022-12-31T14:59:40.598Z,15.37
2022-12-31T15:02:28.277Z,15.34
2022-12-31T15:05:15.895Z,15.16
2022-12-31T15:07:55.719Z,15.07
2022-12-31T15:10:26.111Z,15.05
2022-12-31T15:13:04.907Z,15.02
2022-12-31T15:15:56.244Z,14.94
2022-12-31T15:18:55.648Z,14.90
2022-12-31T15:21:48.295Z,14.80
2022-12-31T15:24:21.867Z,14.79
2022-12-31T15:26:52.191Z,14.71
2022-12-31T15:29:32.382Z,14.68
2022-12-31T15:32:02.188Z,14.63
2022-12-31T15:34:34.988Z,14.48
2022-12-31T15:37:03.221Z,14.49
2022-12-31T15:39:32.395Z,14.42
2022-12-31T15:45:00.968Z,14.28
2022-12-31T15:47:30.940Z,14.22
2022-12-31T15:50:02.479Z,14.19
2022-12-31T15:52:51.417Z,14.21
2022-12-31T15:55:49.455Z,14.12
2022-12-31T15:58:20.365Z,14.06
2022-12-31T16:01:13.161Z,14.02
2022-12-31T16:03:45.034Z,13.95
2022-12-31T16:06:14.501Z,13.93
2022-12-31T16:08:45.182Z,13.94
2022-12-31T16:11:12.336Z,13.91
2022-12-31T16:13:48.676Z,13.88
2022-12-31T16:16:27.060Z,13.84
2022-12-31T16:18:54.047Z,13.84
2022-12-31T16:21:29.870Z,13.80
2022-12-31T16:23:58.208Z,13.79
2022-12-31T16:26:36.785Z,13.76
2022-12-31T16:29:04.354Z,13.79
2022-12-31T16:31:31.662Z,13.73
2022-12-31T16:34:06.631Z,13.65
2022-12-31T16:36:33.460Z,13.55
2022-12-31T16:39:24.319Z,13.51
2022-12-31T16:41:51.388Z,13.50
2022-12-31T16:44:28.863Z,13.53
2022-12-31T16:46:57.908Z,13.46
2022-12-31T16:49:26.123Z,13.39
2022-12-31T16:51:57.005Z,13.44
2022-12-31T16:54:31.032Z,13.34
2022-12-31T16:56:58.989Z,13.39
2022-12-31T16:59:34.907Z,13.33
2022-12-31T17:02:04.662Z,13.22
2022-12-31T17:04:31.363Z,13.31
2022-12-31T17:07:32.286Z,13.31
2022-12-31T17:10:14.094Z,13.26
2022-12-31T17:13:17.399Z,13.28
2022-12-31T17:15:41.017Z,13.26
2022-12-31T17:18:11.487Z,13.21
2022-12-31T17:20:38.032Z,13.18
2022-12-31T17:23:07.774Z,13.19
2022-12-31T17:25:37.073Z,13.14
2022-12-31T17:28:24.190Z,13.10
2022-12-31T17:30:51.017Z,13.18
2022-12-31T17:33:20.199Z,13.20
2022-12-31T17:35:47.371Z,13.17
2022-12-31T17:38:23.331Z,13.23
2022-12-31T17:41:15.217Z,13.14
2022-12-31T17:43:42.571Z,13.17
2022-12-31T17:46:12.482Z,13.23
2022-12-31T17:48:40.419Z,13.23
2022-12-31T17:51:07.422Z,13.21
2022-12-31T17:53:34.897Z,13.13
2022-12-31T17:56:04.039Z,13.19
2022-12-31T17:58:38.311Z,13.15
2022-12-31T18:01:06.583Z,13.02
2022-12-31T18:03:33.280Z,13.00
2022-12-31T18:06:21.382Z,12.96
2022-12-31T18:09:08.972Z,12.76
2022-12-31T18:12:01.394Z,12.67
2022-12-31T18:14:48.525Z,12.75
2022-12-31T18:17:35.305Z,12.62
2022-12-31T18:20:22.842Z,12.57
2022-12-31T18:23:38.538Z,12.71
2022-12-31T18:26:26.429Z,12.70
2022-12-31T18:29:15.686Z,12.64
2022-12-31T18:32:02.957Z,12.49
2022-12-31T18:34:51.067Z,12.52
2022-12-31T18:37:37.945Z,12.50
2022-12-31T18:40:25.184Z,12.50
2022-12-31T18:43:16.383Z,12.42
2022-12-31T18:46:03.205Z,12.51
2022-12-31T18:48:50.141Z,12.53
2022-12-31T18:51:37.439Z,12.49
2022-12-31T18:54:24.244Z,12.37
2022-12-31T18:57:11.957Z,12.46
2022-12-31T18:59:58.779Z,12.41
2022-12-31T19:02:45.669Z,12.39
2022-12-31T19:05:34.580Z,12.35
2022-12-31T19:08:23.183Z,12.35
2022-12-31T19:11:14.420Z,12.37
2022-12-31T19:14:02.440Z,12.45
2022-12-31T19:16:50.731Z,12.44
2022-12-31T19:19:37.576Z,12.50
2022-12-31T19:22:24.415Z,12.48
2022-12-31T19:25:35.595Z,12.51
2022-12-31T19:28:24.838Z,12.40
2022-12-31T19:31:12.183Z,12.30
2022-12-31T19:33:59.094Z,12.36
2022-12-31T19:36:46.088Z,12.33
2022-12-31T19:39:32.998Z,12.24
2022-12-31T19:42:19.819Z,12.29
2022-12-31T19:45:10.376Z,12.19
2022-12-31T19:47:57.237Z,12.22
2022-12-31T19:50:49.806Z,12.26
2022-12-31T19:53:36.697Z,12.14
2022-12-31T19:56:23.499Z,12.16
2022-12-31T19:59:10.988Z,12.15
2022-12-31T20:01:58.261Z,12.26
2022-12-31T20:04:45.382Z,12.25
2022-12-31T20:07:32.793Z,12.20
2022-12-31T20:10:19.685Z,12.25
2022-12-31T20:13:06.714Z,12.32
2022-12-31T20:15:54.010Z,12.34
2022-12-31T20:18:42.418Z,12.33
2022-12-31T20:21:29.735Z,12.28
2022-12-31T20:24:16.716Z,12.44
2022-12-31T20:27:04.694Z,12.49
2022-12-31T20:29:51.505Z,12.48
2022-12-31T20:32:38.556Z,12.45
2022-12-31T20:35:25.421Z,12.46
2022-12-31T20:38:12.310Z,12.52
2022-12-31T20:41:08.607Z,12.54
2022-12-31T20:43:55.481Z,12.48
2022-12-31T20:46:42.355Z,12.58
2022-12-31T20:50:00.885Z,12.48
2022-12-31T20:52:36.085Z,12.53
2022-12-31T20:55:24.740Z,12.46
2022-12-31T20:58:11.526Z,12.44
2022-12-31T21:00:58.378Z,12.48
2022-12-31T21:04:04.751Z,12.49
2022-12-31T21:06:53.093Z,12.56
2022-12-31T21:09:39.941Z,12.57
2022-12-31T21:12:44.730Z,12.58
2022-12-31T21:15:31.598Z,12.58
2022-12-31T21:18:19.464Z,12.61
2022-12-31T21:21:06.658Z,12.51
2022-12-31T21:23:53.596Z,12.43
2022-12-31T21:26:40.473Z,12.35
2022-12-31T21:29:32.656Z,12.27
2022-12-31T21:32:21.305Z,12.30
2022-12-31T21:35:41.066Z,12.29
2022-12-31T21:38:15.857Z,12.27
2022-12-31T21:41:03.968Z,12.33
2022-12-31T21:43:50.869Z,12.31
2022-12-31T21:46:37.736Z,12.24
2022-12-31T21:49:25.148Z,12.32
2022-12-31T21:52:28.410Z,12.30
2022-12-31T21:55:33.835Z,12.33
2022-12-31T21:58:28.433Z,12.26
2022-12-31T22:01:36.743Z,12.23
2022-12-31T22:05:00.358Z,12.24
2022-12-31T22:07:30.586Z,12.30
2022-12-31T22:10:17.349Z,12.21
2022-12-31T22:13:04.268Z,12.21
2022-12-31T22:15:58.688Z,12.23
2022-12-31T22:18:47.943Z,12.24
2022-12-31T22:21:34.810Z,12.31
2022-12-31T22:24:21.656Z,12.27
2022-12-31T22:27:29.294Z,12.30
2022-12-31T22:30:15.529Z,12.31
2022-12-31T22:33:02.412Z,12.27
2022-12-31T22:36:03.803Z,12.23
2022-12-31T22:38:54.394Z,12.25
2022-12-31T22:41:41.646Z,12.24
2022-12-31T22:44:28.701Z,12.31
2022-12-31T22:47:15.583Z,12.21
2022-12-31T22:50:02.422Z,12.26
2022-12-31T22:52:49.220Z,12.22
2022-12-31T22:55:35.988Z,12.18
2022-12-31T22:58:24.022Z,12.12
2022-12-31T23:01:20.113Z,12.15
2022-12-31T23:04:07.151Z,12.17
2022-12-31T23:06:54.180Z,12.12
2022-12-31T23:09:59.571Z,12.14
2022-12-31T23:12:46.497Z,12.14
2022-12-31T23:15:51.798Z,12.12
2022-12-31T23:19:01.823Z,12.01
2022-12-31T23:22:10.935Z,12.02
2022-12-31T23:24:58.165Z,11.99
2022-12-31T23:27:45.315Z,12.00
2022-12-31T23:30:32.198Z,12.25
2022-12-31T23:33:22.216Z,12.19
2022-12-31T23:36:09.332Z,12.40
2022-12-31T23:38:56.769Z,12.48
2022-12-31T23:41:43.591Z,12.47
2022-12-31T23:44:30.765Z,12.46
2022-12-31T23:47:17.555Z,12.57
2022-12-31T23:50:05.053Z,12.65
2022-12-31T23:52:53.330Z,12.56
2022-12-31T23:55:40.129Z,12.55
2022-12-31T23:58:26.972Z,12.49
